Time;durP1;ratioP1;P1;durP2;ratioP2;P2;SDS_P1;SDS_P2;PMS_P1;PMS_P2;Temp;Humidity;BMP_temperature;BMP_pressure;BME280_temperature;BME280_humidity;BME280_pressure;Samples;Min_cycle;Max_cycle;Signal;HPM_P1;HPM_P2
2023/07/06 00:00:54;;;;;;;12.70;2.80;;;15.60;99.90;;;;;;4943810;28;37791;-88
2023/07/06 00:03:23;;;;;;;12.65;2.75;;;15.50;99.90;;;;;;4954633;28;37555;-87
2023/07/06 00:05:49;;;;;;;11.32;2.97;;;15.50;99.90;;;;;;4939772;28;37366;-87
2023/07/06 00:08:18;;;;;;;11.00;2.60;;;15.50;99.90;;;;;;4935580;28;37571;-86
2023/07/06 00:10:46;;;;;;;9.13;2.40;;;15.50;99.90;;;;;;4944368;28;39493;-88
2023/07/06 00:13:13;;;;;;;11.85;2.40;;;15.40;99.90;;;;;;4946471;28;38184;-87
2023/07/06 00:15:42;;;;;;;11.48;2.78;;;15.40;99.90;;;;;;4945708;28;38221;-87
2023/07/06 00:18:09;;;;;;;7.72;2.75;;;15.40;99.90;;;;;;4940893;28;36501;-88
2023/07/06 00:20:39;;;;;;;9.82;2.47;;;15.30;99.90;;;;;;4935459;28;39717;-88
2023/07/06 00:23:08;;;;;;;12.82;2.90;;;15.30;99.90;;;;;;4946579;28;38764;-89
2023/07/06 00:25:35;;;;;;;12.25;2.90;;;15.30;99.90;;;;;;4958540;28;38164;-89
2023/07/06 00:28:04;;;;;;;9.57;3.05;;;15.30;99.90;;;;;;4937920;28;36053;-87
2023/07/06 00:33:15;;;;;;;15.45;2.78;;;15.20;99.90;;;;;;4943457;28;39442;-86
2023/07/06 00:35:41;;;;;;;8.68;2.65;;;15.30;99.90;;;;;;4946227;28;36329;-89
2023/07/06 00:38:10;;;;;;;9.00;2.60;;;15.30;99.90;;;;;;4940142;28;36223;-88
2023/07/06 00:40:41;;;;;;;11.30;3.03;;;15.30;99.90;;;;;;4935946;28;37862;-86
2023/07/06 00:43:28;;;;;;;8.45;2.70;;;15.30;99.90;;;;;;4928999;28;37201;-89
2023/07/06 00:46:10;;;;;;;10.82;2.60;;;15.20;99.90;;;;;;4934178;28;37841;-88
2023/07/06 00:48:39;;;;;;;11.02;3.10;;;15.20;99.90;;;;;;4953049;28;48615;-88
2023/07/06 00:51:16;;;;;;;13.85;3.25;;;15.20;99.90;;;;;;4933741;28;39189;-87
2023/07/06 00:53:46;;;;;;;11.00;3.67;;;15.20;99.90;;;;;;4949503;28;38815;-87
2023/07/06 00:56:17;;;;;;;16.48;3.63;;;15.20;99.90;;;;;;4952079;28;38644;-89
2023/07/06 00:58:46;;;;;;;9.40;2.63;;;15.20;99.90;;;;;;4934890;28;37437;-87
2023/07/06 01:03:54;;;;;;;11.90;2.97;;;15.10;99.90;;;;;;4003767;26;20041;-86
2023/07/06 01:06:34;;;;;;;14.27;4.13;;;15.10;99.90;;;;;;4886139;29;36770;-88
2023/07/06 01:09:03;;;;;;;13.20;3.30;;;15.10;99.90;;;;;;4898374;29;36194;-88
2023/07/06 01:11:30;;;;;;;14.68;4.03;;;15.10;99.90;;;;;;4878956;29;46110;-88
2023/07/06 01:13:57;;;;;;;13.20;3.58;;;15.10;99.90;;;;;;4890657;29;37526;-89
2023/07/06 01:16:39;;;;;;;11.40;3.53;;;15.00;99.90;;;;;;4869994;29;36778;-88
2023/07/06 01:19:26;;;;;;;16.50;4.50;;;15.00;99.90;;;;;;4876441;29;37641;-88
2023/07/06 01:22:22;;;;;;;15.32;3.28;;;15.00;99.90;;;;;;4876945;29;37616;-87
2023/07/06 01:25:10;;;;;;;14.18;3.88;;;14.90;99.90;;;;;;4888369;29;48115;-87
2023/07/06 01:28:05;;;;;;;17.17;4.18;;;15.00;99.90;;;;;;4902657;29;48092;-89
2023/07/06 01:30:41;;;;;;;15.73;4.50;;;14.90;99.90;;;;;;4848549;29;47503;-87
2023/07/06 01:33:12;;;;;;;20.15;3.97;;;14.90;99.90;;;;;;4900997;29;37687;-88
2023/07/06 01:35:50;;;;;;;19.10;4.55;;;14.90;99.90;;;;;;4896596;29;37126;-86
2023/07/06 01:38:16;;;;;;;21.48;4.78;;;14.90;99.90;;;;;;4884044;29;37459;-89
2023/07/06 01:40:42;;;;;;;15.88;4.50;;;14.90;99.90;;;;;;4901160;29;37095;-89
2023/07/06 01:43:10;;;;;;;18.35;4.85;;;15.00;99.90;;;;;;4888461;29;39043;-88
2023/07/06 01:45:37;;;;;;;20.13;4.65;;;15.00;99.90;;;;;;4896793;29;37759;-87
2023/07/06 01:48:10;;;;;;;15.23;4.30;;;15.00;99.90;;;;;;4891532;29;38551;-87
2023/07/06 01:50:55;;;;;;;15.05;4.32;;;15.00;99.90;;;;;;4888630;29;37555;-88
2023/07/06 01:53:31;;;;;;;13.38;5.03;;;15.00;99.90;;;;;;4877359;29;40553;-88
2023/07/06 01:56:04;;;;;;;18.33;4.38;;;15.00;99.90;;;;;;4881235;29;37580;-88
2023/07/06 01:58:43;;;;;;;18.60;4.70;;;15.00;99.90;;;;;;4892306;29;47672;-87
2023/07/06 02:01:17;;;;;;;16.48;4.90;;;15.00;99.90;;;;;;4908723;29;37315;-88
2023/07/06 02:03:45;;;;;;;17.27;4.72;;;15.00;99.90;;;;;;4895198;29;38674;-88
2023/07/06 02:06:11;;;;;;;19.90;4.35;;;15.00;99.90;;;;;;4907743;29;37913;-86
2023/07/06 02:08:41;;;;;;;16.63;4.32;;;15.00;99.90;;;;;;4911590;28;38079;-86
2023/07/06 02:11:09;;;;;;;21.88;5.53;;;15.00;99.90;;;;;;4889088;29;35977;-88
2023/07/06 02:13:35;;;;;;;16.85;5.25;;;15.00;99.90;;;;;;4893809;29;38036;-87
2023/07/06 02:16:05;;;;;;;20.55;4.78;;;15.10;99.90;;;;;;4888487;29;38194;-87
2023/07/06 02:18:35;;;;;;;15.05;4.25;;;15.10;99.90;;;;;;4895724;29;39302;-88
2023/07/06 02:21:02;;;;;;;24.58;5.10;;;15.20;99.90;;;;;;4905446;29;37309;-87
2023/07/06 02:23:29;;;;;;;20.85;4.35;;;15.20;99.90;;;;;;4887952;29;46810;-89
2023/07/06 02:25:56;;;;;;;14.90;4.55;;;15.20;99.90;;;;;;4910764;29;40062;-87
2023/07/06 02:28:23;;;;;;;16.65;4.78;;;15.20;99.90;;;;;;4906036;29;37318;-88
2023/07/06 02:30:50;;;;;;;16.63;5.13;;;15.30;99.90;;;;;;4889386;29;37648;-88
2023/07/06 02:33:19;;;;;;;23.70;5.35;;;15.30;99.90;;;;;;4908892;28;37863;-87
2023/07/06 02:35:46;;;;;;;20.75;5.05;;;15.30;99.90;;;;;;4911880;28;39882;-87
2023/07/06 02:38:13;;;;;;;18.30;4.90;;;15.30;99.90;;;;;;4909670;29;38768;-85
2023/07/06 02:40:40;;;;;;;26.48;5.35;;;15.40;99.90;;;;;;4907613;28;36195;-85
2023/07/06 02:43:07;;;;;;;24.65;4.82;;;15.40;99.90;;;;;;4905448;29;38223;-87
2023/07/06 02:45:34;;;;;;;22.92;5.57;;;15.40;99.90;;;;;;4909849;29;37198;-89
2023/07/06 02:48:01;;;;;;;14.07;4.97;;;15.40;99.90;;;;;;4905772;29;37838;-89
2023/07/06 02:50:28;;;;;;;18.88;5.18;;;15.40;99.90;;;;;;4910859;29;49116;-86
2023/07/06 02:52:54;;;;;;;21.65;6.05;;;15.40;99.90;;;;;;4910548;29;37736;-88
2023/07/06 02:55:22;;;;;;;23.63;5.32;;;15.50;99.90;;;;;;4889759;29;38752;-88
2023/07/06 02:57:48;;;;;;;18.52;5.25;;;15.40;99.90;;;;;;4915454;29;40463;-88
2023/07/06 03:00:16;;;;;;;13.18;4.55;;;15.40;99.90;;;;;;4908928;29;37010;-87
2023/07/06 03:02:43;;;;;;;24.20;5.32;;;15.40;99.90;;;;;;4906959;29;38712;-89
2023/07/06 03:05:11;;;;;;;23.38;5.28;;;15.40;99.90;;;;;;4893263;29;37673;-88
2023/07/06 03:07:38;;;;;;;22.95;6.35;;;15.40;99.90;;;;;;4911132;29;37958;-87
2023/07/06 03:10:08;;;;;;;21.88;5.90;;;15.30;99.90;;;;;;4894038;29;37110;-88
2023/07/06 03:12:37;;;;;;;20.98;5.65;;;15.30;99.90;;;;;;4891335;29;37948;-88
2023/07/06 03:15:10;;;;;;;16.08;5.15;;;15.20;99.90;;;;;;4893107;29;37412;-87
2023/07/06 03:17:38;;;;;;;20.58;5.65;;;15.30;99.90;;;;;;4901798;29;47275;-89
2023/07/06 03:20:14;;;;;;;21.35;6.40;;;15.20;99.90;;;;;;4907009;29;36231;-87
2023/07/06 03:22:48;;;;;;;18.88;6.10;;;15.20;99.90;;;;;;4907020;29;47694;-87
2023/07/06 03:25:15;;;;;;;18.83;5.40;;;15.20;99.90;;;;;;4903108;29;37269;-87
2023/07/06 03:27:46;;;;;;;28.42;7.15;;;15.20;99.90;;;;;;4915319;29;37101;-89
2023/07/06 03:30:14;;;;;;;17.92;5.53;;;15.30;99.90;;;;;;4895239;29;36512;-88
2023/07/06 03:32:40;;;;;;;23.58;6.97;;;15.20;99.90;;;;;;4912182;28;39586;-88
2023/07/06 03:35:09;;;;;;;16.20;6.00;;;15.20;99.90;;;;;;4893898;29;39062;-89
2023/07/06 03:37:37;;;;;;;29.85;7.72;;;15.20;99.90;;;;;;4909133;29;36920;-89
2023/07/06 03:40:10;;;;;;;27.25;7.47;;;15.10;99.90;;;;;;4898969;29;36303;-89
2023/07/06 03:42:44;;;;;;;21.88;7.20;;;15.00;99.90;;;;;;4911349;29;47150;-86
2023/07/06 03:45:13;;;;;;;28.17;7.47;;;15.00;99.90;;;;;;4889144;29;37651;-88
2023/07/06 03:47:42;;;;;;;18.83;7.55;;;15.00;99.90;;;;;;4907346;28;36859;-87
2023/07/06 03:50:09;;;;;;;24.33;7.05;;;15.00;99.90;;;;;;4903392;29;36507;-88
2023/07/06 03:52:39;;;;;;;27.55;8.25;;;14.90;99.90;;;;;;4896962;29;39120;-87
2023/07/06 03:55:08;;;;;;;22.95;7.28;;;14.90;99.90;;;;;;4894234;29;38299;-87
2023/07/06 03:57:34;;;;;;;21.42;7.03;;;14.90;99.90;;;;;;4888861;29;37679;-89
2023/07/06 04:00:08;;;;;;;27.17;7.97;;;14.90;99.90;;;;;;4895427;29;36127;-88
2023/07/06 04:02:35;;;;;;;27.77;8.18;;;15.00;99.90;;;;;;4906177;29;20056;-89
2023/07/06 04:05:02;;;;;;;29.52;7.75;;;15.00;99.90;;;;;;4908918;28;37822;-86
2023/07/06 04:07:28;;;;;;;23.45;7.68;;;15.10;99.90;;;;;;4908157;29;37265;-87
2023/07/06 04:09:54;;;;;;;29.73;8.57;;;15.00;99.90;;;;;;4898341;29;36337;-88
2023/07/06 04:12:20;;;;;;;17.83;6.30;;;15.00;99.90;;;;;;4891737;29;37669;-89
2023/07/06 04:14:46;;;;;;;29.20;8.07;;;15.00;99.90;;;;;;4899504;29;37608;-88
2023/07/06 04:17:14;;;;;;;22.38;7.50;;;14.90;99.90;;;;;;4897876;29;37958;-89
2023/07/06 04:19:41;;;;;;;25.17;7.90;;;14.90;99.90;;;;;;4879968;29;36106;-87
2023/07/06 04:22:07;;;;;;;17.58;7.20;;;14.80;99.90;;;;;;4892652;29;37933;-89
2023/07/06 04:24:34;;;;;;;24.73;7.75;;;14.80;99.90;;;;;;4882052;29;37461;-88
2023/07/06 04:27:00;;;;;;;26.80;7.97;;;14.80;99.90;;;;;;4893876;29;36803;-88
2023/07/06 04:29:30;;;;;;;25.13;9.15;;;14.80;99.90;;;;;;4897009;29;38449;-87
2023/07/06 04:31:56;;;;;;;26.80;9.38;;;14.80;99.90;;;;;;4908264;29;37483;-87
2023/07/06 04:34:26;;;;;;;26.08;8.90;;;14.90;99.90;;;;;;4890154;29;37204;-87
2023/07/06 04:36:52;;;;;;;23.88;8.40;;;14.90;99.90;;;;;;4891713;29;37101;-88
2023/07/06 04:39:18;;;;;;;27.70;8.93;;;15.00;99.90;;;;;;4890026;29;36469;-89
2023/07/06 04:41:44;;;;;;;24.38;8.80;;;15.00;99.90;;;;;;4872492;29;38050;-89
2023/07/06 04:44:11;;;;;;;28.45;9.20;;;15.00;99.90;;;;;;4882456;29;37401;-90
2023/07/06 04:46:39;;;;;;;26.38;8.52;;;15.00;99.90;;;;;;4889690;29;37277;-89
2023/07/06 04:49:05;;;;;;;34.38;9.60;;;15.00;99.90;;;;;;4892310;29;37364;-90
2023/07/06 04:51:35;;;;;;;24.52;8.95;;;15.00;99.90;;;;;;4889773;29;38413;-88
2023/07/06 04:54:03;;;;;;;31.27;9.65;;;15.00;99.90;;;;;;4893781;29;37406;-88
2023/07/06 04:56:29;;;;;;;20.85;8.88;;;14.90;99.90;;;;;;4898923;29;47198;-88
2023/07/06 04:58:56;;;;;;;25.52;9.85;;;14.90;99.90;;;;;;4911071;29;37479;-90
2023/07/06 05:01:24;;;;;;;29.55;10.75;;;14.90;99.90;;;;;;4883724;29;38779;-88
2023/07/06 05:03:52;;;;;;;28.77;10.23;;;14.80;99.90;;;;;;4889529;29;37867;-88
2023/07/06 05:06:19;;;;;;;29.80;10.95;;;14.80;99.90;;;;;;4902486;29;38865;-85
2023/07/06 05:08:47;;;;;;;26.33;9.25;;;14.90;99.90;;;;;;4885510;29;38662;-85
2023/07/06 05:11:15;;;;;;;34.13;11.82;;;15.00;99.90;;;;;;4887906;29;37906;-86
2023/07/06 05:13:42;;;;;;;35.83;10.90;;;15.00;99.90;;;;;;4871202;29;39097;-88
2023/07/06 05:16:08;;;;;;;24.60;10.30;;;15.10;99.90;;;;;;4871851;29;37106;-86
2023/07/06 05:18:34;;;;;;;29.95;10.75;;;15.20;99.90;;;;;;4872136;29;37256;-88
2023/07/06 05:21:00;;;;;;;30.42;10.38;;;15.30;99.90;;;;;;4903395;29;39438;-87
2023/07/06 05:23:28;;;;;;;28.48;10.15;;;15.40;99.90;;;;;;4888234;29;38710;-88
2023/07/06 05:25:56;;;;;;;29.80;9.82;;;15.50;99.90;;;;;;4892090;29;38162;-86
2023/07/06 05:28:23;;;;;;;25.25;10.95;;;15.50;99.90;;;;;;4906990;29;36647;-86
2023/07/06 05:30:49;;;;;;;30.85;10.80;;;15.60;99.90;;;;;;4909413;29;37745;-88
2023/07/06 05:33:16;;;;;;;29.08;10.85;;;15.70;99.90;;;;;;4901291;29;37662;-84
2023/07/06 05:35:42;;;;;;;29.40;9.75;;;15.80;99.90;;;;;;4902134;29;38361;-84
2023/07/06 05:38:10;;;;;;;29.27;9.95;;;15.80;99.90;;;;;;4906201;29;37367;-88
2023/07/06 05:40:40;;;;;;;26.10;10.15;;;15.80;99.90;;;;;;4888356;29;38784;-85
2023/07/06 05:43:09;;;;;;;24.05;9.45;;;15.90;99.90;;;;;;4894593;29;36525;-84
2023/07/06 05:45:35;;;;;;;26.17;9.65;;;15.80;99.90;;;;;;4868907;29;37101;-87
2023/07/06 05:48:02;;;;;;;22.75;8.98;;;15.80;99.90;;;;;;4878422;29;36910;-85
2023/07/06 05:50:29;;;;;;;24.58;9.95;;;16.00;99.90;;;;;;4879214;29;46955;-86
2023/07/06 05:52:55;;;;;;;25.02;9.23;;;16.00;99.90;;;;;;4895517;29;38197;-86
2023/07/06 05:55:23;;;;;;;19.42;8.07;;;16.00;99.90;;;;;;4890157;28;37501;-86
2023/07/06 05:57:50;;;;;;;27.13;8.82;;;15.90;99.90;;;;;;4890355;29;36137;-86
2023/07/06 06:00:16;;;;;;;24.70;7.88;;;16.00;99.90;;;;;;4890610;29;37655;-84
2023/07/06 06:02:44;;;;;;;23.42;8.40;;;16.20;99.90;;;;;;4897830;28;37484;-87
2023/07/06 06:05:14;;;;;;;21.95;7.78;;;16.20;99.90;;;;;;4892273;28;37439;-87
2023/07/06 06:07:46;;;;;;;26.75;8.70;;;16.20;99.90;;;;;;4890975;28;36333;-84
2023/07/06 06:10:13;;;;;;;23.23;8.70;;;16.00;99.90;;;;;;4891700;29;38511;-85
2023/07/06 06:12:39;;;;;;;19.70;9.13;;;16.20;99.90;;;;;;4882251;29;38159;-81
2023/07/06 06:15:09;;;;;;;21.98;8.90;;;16.10;99.90;;;;;;4894409;29;38887;-85
2023/07/06 06:17:37;;;;;;;28.50;9.82;;;16.10;99.90;;;;;;4885126;29;35165;-84
2023/07/06 06:20:04;;;;;;;21.70;8.88;;;16.10;99.90;;;;;;4901264;28;38490;-83
2023/07/06 06:22:31;;;;;;;23.13;9.63;;;16.10;99.90;;;;;;4893276;29;38413;-84
2023/07/06 06:24:57;;;;;;;23.67;7.45;;;16.30;99.90;;;;;;4899290;28;37117;-85
2023/07/06 06:27:23;;;;;;;25.35;8.15;;;16.30;99.90;;;;;;4892844;28;36940;-80
2023/07/06 06:29:50;;;;;;;24.08;8.02;;;16.40;99.90;;;;;;4893084;29;37461;-83
2023/07/06 06:32:16;;;;;;;19.80;8.25;;;16.50;99.90;;;;;;4890641;29;37418;-85
2023/07/06 06:34:42;;;;;;;24.85;7.97;;;16.60;99.90;;;;;;4883020;29;36003;-88
2023/07/06 06:37:09;;;;;;;23.30;8.00;;;16.70;99.90;;;;;;4898146;29;35966;-87
2023/07/06 06:39:36;;;;;;;27.95;8.85;;;16.70;99.90;;;;;;4880626;29;39351;-83
2023/07/06 06:42:02;;;;;;;26.08;9.93;;;16.80;99.90;;;;;;4906815;29;39089;-90
2023/07/06 06:44:29;;;;;;;22.77;8.65;;;16.70;99.90;;;;;;4890990;29;37230;-84
2023/07/06 06:46:58;;;;;;;21.35;8.68;;;16.60;99.90;;;;;;4905399;29;37050;-84
2023/07/06 06:49:25;;;;;;;23.27;8.00;;;16.70;99.90;;;;;;4904882;29;37814;-86
2023/07/06 06:51:51;;;;;;;23.02;9.27;;;16.80;99.90;;;;;;4909842;29;38891;-87
2023/07/06 06:54:18;;;;;;;27.08;8.43;;;16.70;99.90;;;;;;4910428;29;38572;-87
2023/07/06 06:56:44;;;;;;;19.15;7.90;;;16.70;99.90;;;;;;4907353;29;37264;-86
2023/07/06 06:59:11;;;;;;;25.58;9.27;;;16.80;99.90;;;;;;4901437;29;37985;-88
2023/07/06 07:01:40;;;;;;;20.95;7.85;;;16.90;99.90;;;;;;4895794;29;37264;-87
2023/07/06 07:04:09;;;;;;;24.23;8.00;;;16.80;99.90;;;;;;4882440;29;38716;-89
2023/07/06 07:06:38;;;;;;;17.13;7.00;;;17.00;99.90;;;;;;4901560;29;35086;-86
2023/07/06 07:09:09;;;;;;;21.55;7.30;;;17.30;99.90;;;;;;4890548;29;38506;-87
2023/07/06 07:11:36;;;;;;;22.95;7.60;;;17.70;99.90;;;;;;4895341;29;38764;-86
2023/07/06 07:14:03;;;;;;;21.35;7.03;;;17.70;99.90;;;;;;4882331;29;36829;-88
2023/07/06 07:16:29;;;;;;;16.90;6.53;;;17.90;99.90;;;;;;4894242;29;37439;-88
2023/07/06 07:18:55;;;;;;;17.63;6.28;;;17.80;99.90;;;;;;4883790;29;37757;-86
2023/07/06 07:21:21;;;;;;;16.45;6.63;;;18.00;99.90;;;;;;4892316;29;39572;-87
2023/07/06 07:23:49;;;;;;;18.45;6.57;;;18.10;99.90;;;;;;4895806;29;38140;-87
2023/07/06 07:26:24;;;;;;;12.85;5.53;;;18.30;99.90;;;;;;4909548;29;37873;-89
2023/07/06 07:28:51;;;;;;;13.15;5.72;;;18.40;99.90;;;;;;4895560;29;38706;-87
2023/07/06 07:31:25;;;;;;;17.08;5.28;;;18.70;99.90;;;;;;4885317;29;40851;-88
2023/07/06 07:33:51;;;;;;;15.05;5.22;;;18.70;99.90;;;;;;4891682;29;37039;-87
2023/07/06 07:36:19;;;;;;;17.67;4.93;;;18.70;99.90;;;;;;4895350;29;38587;-88
2023/07/06 07:38:47;;;;;;;13.68;5.55;;;18.70;99.90;;;;;;4895670;29;38658;-86
2023/07/06 07:41:18;;;;;;;12.13;4.90;;;18.80;99.90;;;;;;4887378;29;38364;-87
2023/07/06 07:43:46;;;;;;;23.92;4.80;;;18.70;99.90;;;;;;4884091;29;37178;-86
2023/07/06 07:46:14;;;;;;;12.93;4.43;;;19.10;99.90;;;;;;4894016;29;37296;-86
2023/07/06 07:48:45;;;;;;;14.27;4.22;;;19.20;99.90;;;;;;4882603;29;37795;-84
2023/07/06 07:51:14;;;;;;;16.50;4.28;;;19.30;99.90;;;;;;4901498;29;38674;-85
2023/07/06 07:53:41;;;;;;;10.52;3.67;;;19.10;99.90;;;;;;4898147;29;37586;-85
2023/07/06 07:56:08;;;;;;;13.05;4.35;;;19.30;99.90;;;;;;4913667;29;37087;-86
2023/07/06 07:58:36;;;;;;;10.73;3.90;;;19.40;99.90;;;;;;4904631;29;37613;-86
2023/07/06 08:01:06;;;;;;;13.38;4.05;;;19.50;99.90;;;;;;4898601;29;38639;-86
2023/07/06 08:03:36;;;;;;;11.50;3.42;;;19.50;99.90;;;;;;4878313;29;38500;-85
2023/07/06 08:06:06;;;;;;;14.80;3.40;;;19.40;99.90;;;;;;4880301;29;36321;-86
2023/07/06 08:08:33;;;;;;;13.25;3.40;;;19.70;99.90;;;;;;4900796;29;37643;-86
2023/07/06 08:11:05;;;;;;;12.05;3.35;;;19.60;99.90;;;;;;4881151;29;38866;-87
2023/07/06 08:13:33;;;;;;;14.03;3.40;;;19.60;99.90;;;;;;4907441;29;47256;-84
2023/07/06 08:16:01;;;;;;;15.75;3.05;;;19.70;99.90;;;;;;4896433;29;35993;-85
2023/07/06 08:18:28;;;;;;;8.88;2.85;;;20.00;99.90;;;;;;4890521;29;46367;-86
2023/07/06 08:20:55;;;;;;;8.05;2.70;;;20.50;96.30;;;;;;4912380;29;37479;-85
2023/07/06 08:23:22;;;;;;;7.05;2.80;;;20.30;80.20;;;;;;4896402;29;38926;-87
2023/07/06 08:25:51;;;;;;;8.02;2.75;;;19.70;81.50;;;;;;4913279;29;36300;-86
2023/07/06 08:28:31;;;;;;;10.20;2.72;;;19.60;94.90;;;;;;4913277;29;38741;-84
2023/07/06 08:31:02;;;;;;;8.93;2.40;;;19.30;96.40;;;;;;4899584;29;38166;-85
2023/07/06 08:33:32;;;;;;;7.82;3.03;;;19.00;95.30;;;;;;4914609;29;47368;-84
2023/07/06 08:36:01;;;;;;;6.20;2.75;;;18.80;99.00;;;;;;4909494;29;37739;-85
2023/07/06 08:38:31;;;;;;;11.48;3.47;;;18.60;99.90;;;;;;4920258;29;46770;-86
2023/07/06 08:41:03;;;;;;;8.13;2.92;;;18.50;99.90;;;;;;4910607;29;38184;-86
2023/07/06 08:43:32;;;;;;;11.73;3.10;;;18.40;99.90;;;;;;4912545;29;47164;-88
2023/07/06 08:46:04;;;;;;;9.23;3.28;;;18.20;99.90;;;;;;4905343;29;37304;-87
2023/07/06 08:48:34;;;;;;;11.50;3.63;;;18.10;99.90;;;;;;4906650;29;47128;-87
2023/07/06 08:51:10;;;;;;;10.90;3.42;;;18.10;99.90;;;;;;4898149;29;37535;-88
2023/07/06 08:53:36;;;;;;;7.60;2.47;;;18.10;99.90;;;;;;4919004;29;48638;-88
2023/07/06 08:56:09;;;;;;;5.72;2.60;;;18.30;99.90;;;;;;4899578;29;35999;-87
2023/07/06 08:58:41;;;;;;;8.13;2.72;;;18.60;99.90;;;;;;4895501;29;37809;-89
2023/07/06 09:01:18;;;;;;;;;;;18.80;99.90;;;;;;4895844;29;37657;-89
2023/07/06 09:03:50;;;;;;;8.35;2.42;;;18.80;99.90;;;;;;4899545;29;36863;-90
2023/07/06 09:06:52;;;;;;;8.00;2.20;;;18.70;99.90;;;;;;4905305;29;36957;-93
2023/07/06 09:09:18;;;;;;;7.70;2.20;;;18.60;99.90;;;;;;4906270;29;39623;-86
2023/07/06 09:11:47;;;;;;;6.82;2.42;;;18.50;99.90;;;;;;4909096;28;37341;-87
2023/07/06 09:14:13;;;;;;;7.68;2.03;;;18.50;99.90;;;;;;4912225;29;38098;-88
2023/07/06 09:16:48;;;;;;;4.30;1.30;;;18.40;99.90;;;;;;4892988;29;36198;-87
2023/07/06 09:19:17;;;;;;;3.30;1.15;;;18.30;88.60;;;;;;4893415;29;37630;-88
2023/07/06 09:21:47;;;;;;;4.50;1.50;;;18.10;66.40;;;;;;4900806;29;39330;-88
2023/07/06 09:24:14;;;;;;;1.90;1.00;;;18.20;67.70;;;;;;4895529;29;37130;-90
2023/07/06 09:26:44;;;;;;;4.40;1.10;;;18.20;76.00;;;;;;4896833;29;37331;-89
2023/07/06 09:29:22;;;;;;;5.13;1.33;;;18.50;82.90;;;;;;4897389;29;39957;-90
2023/07/06 09:31:49;;;;;;;4.45;0.95;;;19.20;33.90;;;;;;4898870;29;37660;-89
2023/07/06 09:34:31;;;;;;;2.85;0.90;;;19.80;41.10;;;;;;4911106;29;37096;-88
2023/07/06 09:36:59;;;;;;;2.90;1.13;;;20.40;1.00;;;;;;4900635;29;37938;-86
2023/07/06 09:39:26;;;;;;;1.77;0.80;;;20.60;1.00;;;;;;4916740;29;38739;-89
2023/07/06 09:41:53;;;;;;;3.65;0.93;;;20.50;1.00;;;;;;4901853;29;37834;-88
2023/07/06 09:44:30;;;;;;;5.70;0.82;;;20.80;1.00;;;;;;4891884;29;36669;-87
2023/07/06 09:46:59;;;;;;;5.28;1.23;;;21.20;1.00;;;;;;4898340;29;36495;-88
2023/07/06 09:49:41;;;;;;;3.28;1.08;;;21.20;1.00;;;;;;4910875;29;37744;-87
2023/07/06 09:52:13;;;;;;;2.00;0.75;;;21.40;1.00;;;;;;4902061;29;39360;-87
2023/07/06 09:55:07;;;;;;;3.00;0.70;;;21.40;1.00;;;;;;4908628;29;39078;-87
2023/07/06 09:57:35;;;;;;;1.38;0.50;;;21.30;1.00;;;;;;4903618;29;47542;-88
2023/07/06 10:00:02;;;;;;;1.55;0.60;;;21.30;1.00;;;;;;4899621;29;38138;-88
2023/07/06 10:02:36;;;;;;;4.43;0.93;;;21.50;1.00;;;;;;4893997;29;37727;-87
2023/07/06 10:05:23;;;;;;;1.70;0.68;;;21.90;1.00;;;;;;4918612;29;38204;-90
2023/07/06 10:07:58;;;;;;;1.90;0.80;;;22.30;99.90;;;;;;4925660;29;47763;-84
2023/07/06 10:10:36;;;;;;;3.70;1.42;;;22.10;1.00;;;;;;4914754;29;39024;-88
2023/07/06 10:13:13;;;;;;;2.22;0.80;;;21.90;1.00;;;;;;4887828;29;38427;-89
2023/07/06 10:16:07;;;;;;;2.00;0.82;;;21.70;1.00;;;;;;4913824;29;37126;-89
2023/07/06 10:18:54;;;;;;;5.03;1.10;;;21.80;99.90;;;;;;4916673;29;47331;-89
2023/07/06 10:21:55;;;;;;;2.03;0.95;;;21.60;1.00;;;;;;4910295;28;38993;-88
2023/07/06 10:24:36;;;;;;;3.75;1.00;;;21.40;36.70;;;;;;4910468;29;37862;-89
2023/07/06 10:27:09;;;;;;;2.00;0.75;;;21.10;1.00;;;;;;4884618;29;36866;-89
2023/07/06 10:29:46;;;;;;;1.73;0.85;;;21.00;99.90;;;;;;4917857;29;36311;-88
2023/07/06 10:32:24;;;;;;;1.67;1.05;;;20.90;99.90;;;;;;4898182;29;37649;-89
2023/07/06 10:35:00;;;;;;;2.45;0.80;;;20.90;1.00;;;;;;4915600;29;37588;-89
2023/07/06 10:37:35;;;;;;;2.47;1.00;;;21.00;35.20;;;;;;4916700;29;38778;-89
2023/07/06 10:40:24;;;;;;;3.20;0.85;;;21.50;1.00;;;;;;4896646;29;36250;-88
2023/07/06 10:43:22;;;;;;;2.33;1.02;;;21.80;99.90;;;;;;4904676;29;47583;-88
2023/07/06 10:45:50;;;;;;;1.58;0.80;;;22.40;99.90;;;;;;4907399;29;47394;-88
2023/07/06 10:48:34;;;;;;;3.17;1.00;;;23.00;1.00;;;;;;4895886;29;37345;-89
2023/07/06 10:51:15;;;;;;;2.58;0.90;;;22.60;99.90;;;;;;4905602;29;37531;-85
2023/07/06 10:53:47;;;;;;;2.40;0.60;;;23.00;99.90;;;;;;4897285;29;47077;-83
2023/07/06 10:56:19;;;;;;;;;;;22.90;1.00;;;;;;4884875;29;37184;-82
2023/07/06 10:58:57;;;;;;;1.73;0.70;;;23.10;99.90;;;;;;4895525;29;38617;-81
2023/07/06 11:01:32;;;;;;;1.67;0.80;;;23.20;1.00;;;;;;4900091;29;37211;-83
2023/07/06 11:04:00;;;;;;;2.80;0.90;;;23.30;2.80;;;;;;4904504;29;38624;-88
2023/07/06 11:06:42;;;;;;;2.90;0.80;;;22.50;99.90;;;;;;4883045;29;46574;-87
2023/07/06 11:09:08;;;;;;;1.10;0.65;;;22.70;1.00;;;;;;4889809;29;39135;-88
2023/07/06 11:11:43;;;;;;;4.05;1.10;;;22.80;99.90;;;;;;4909529;29;37292;-89
2023/07/06 11:14:19;;;;;;;1.83;0.80;;;23.00;1.00;;;;;;4891470;29;37699;-90
2023/07/06 11:17:03;;;;;;;1.55;0.60;;;23.30;1.00;;;;;;4917191;29;39035;-89
2023/07/06 11:19:34;;;;;;;2.25;0.80;;;23.10;1.00;;;;;;4897012;29;47438;-90
2023/07/06 11:22:13;;;;;;;1.48;0.80;;;23.30;99.90;;;;;;4900475;29;37344;-89
2023/07/06 11:24:48;;;;;;;1.88;1.10;;;23.60;1.00;;;;;;4921533;29;48819;-90
2023/07/06 11:27:24;;;;;;;2.53;0.80;;;23.50;1.00;;;;;;4928071;28;37714;-88
2023/07/06 11:29:54;;;;;;;1.23;0.68;;;23.70;99.90;;;;;;4917512;29;38716;-89
2023/07/06 11:32:26;;;;;;;2.72;0.75;;;23.50;1.00;;;;;;4918038;29;36486;-89
2023/07/06 11:35:34;;;;;;;1.58;0.80;;;23.00;1.00;;;;;;4901137;29;38474;-87
2023/07/06 11:38:14;;;;;;;1.50;0.63;;;23.10;99.90;;;;;;4918796;29;48634;-90
2023/07/06 11:41:11;;;;;;;2.17;0.70;;;23.10;1.00;;;;;;4921773;29;47425;-90
2023/07/06 11:43:43;;;;;;;1.40;0.70;;;23.50;1.00;;;;;;4907223;29;47402;-90
2023/07/06 11:46:43;;;;;;;1.73;0.60;;;23.70;1.00;;;;;;4902490;29;38956;-91
2023/07/06 11:49:20;;;;;;;1.45;0.70;;;23.70;99.90;;;;;;4912444;29;39630;-89
2023/07/06 11:51:48;;;;;;;1.92;0.90;;;23.60;99.90;;;;;;4900927;29;36946;-88
2023/07/06 11:57:24;;;;;;;1.63;0.85;;;23.80;1.00;;;;;;4914882;29;39323;-90
2023/07/06 12:02:40;;;;;;;4.15;0.90;;;24.10;1.00;;;;;;4921348;29;39318;-90
2023/07/06 12:05:29;;;;;;;1.95;0.90;;;23.90;1.00;;;;;;4916425;29;36682;-87
2023/07/06 12:08:00;;;;;;;2.78;0.77;;;23.80;1.00;;;;;;4917529;29;38212;-87
2023/07/06 12:10:33;;;;;;;2.95;1.02;;;22.90;99.90;;;;;;4894359;29;47333;-88
2023/07/06 12:12:59;;;;;;;2.45;0.90;;;23.10;99.90;;;;;;4896759;29;38571;-89
2023/07/06 12:15:25;;;;;;;3.60;1.02;;;23.80;1.00;;;;;;4884498;29;36190;-89
2023/07/06 12:17:57;;;;;;;3.70;1.13;;;24.40;1.00;;;;;;4927538;29;38543;-89
2023/07/06 12:20:25;;;;;;;3.70;1.17;;;24.10;1.00;;;;;;4904179;29;37978;-89
2023/07/06 12:22:57;;;;;;;4.10;1.15;;;24.00;99.90;;;;;;4915699;29;36817;-89
2023/07/06 12:25:27;;;;;;;3.08;0.93;;;24.10;99.90;;;;;;4895234;29;38407;-87
2023/07/06 12:27:59;;;;;;;3.95;0.82;;;24.10;99.90;;;;;;4889770;29;39065;-86
2023/07/06 12:30:33;;;;;;;;;;;24.50;99.90;;;;;;4915816;29;38659;-90
2023/07/06 12:33:10;;;;;;;2.22;1.08;;;24.40;52.80;;;;;;4913900;29;36635;-87
2023/07/06 12:35:37;;;;;;;2.00;0.73;;;24.40;99.90;;;;;;4895098;29;47104;-89
2023/07/06 12:38:09;;;;;;;2.72;1.27;;;24.60;99.90;;;;;;4878515;29;39095;-90
2023/07/06 12:40:38;;;;;;;2.25;1.10;;;24.60;99.90;;;;;;4885063;29;37361;-89
2023/07/06 12:43:05;;;;;;;4.60;0.90;;;24.10;1.00;;;;;;4879274;29;38424;-88
2023/07/06 12:45:32;;;;;;;1.55;1.10;;;24.10;1.00;;;;;;4891639;29;38305;-89
2023/07/06 12:48:05;;;;;;;2.00;0.70;;;24.40;1.00;;;;;;4897864;29;39531;-89
2023/07/06 12:50:37;;;;;;;2.13;1.05;;;24.70;99.90;;;;;;4895046;29;49228;-87
2023/07/06 12:53:22;;;;;;;2.58;1.10;;;25.00;1.00;;;;;;4913451;29;37892;-88
2023/07/06 12:55:52;;;;;;;3.90;1.20;;;24.90;85.00;;;;;;4895343;29;36461;-88
2023/07/06 12:58:26;;;;;;;4.05;1.13;;;24.50;1.00;;;;;;4916100;29;38041;-88
2023/07/06 13:01:25;;;;;;;3.63;1.08;;;24.30;1.00;;;;;;4896152;29;38909;-90
2023/07/06 13:03:56;;;;;;;3.42;1.30;;;24.20;1.00;;;;;;4880064;29;47850;-90
2023/07/06 13:06:25;;;;;;;2.47;0.90;;;23.80;1.00;;;;;;4885006;29;36371;-88
2023/07/06 13:09:00;;;;;;;4.93;1.40;;;23.60;1.00;;;;;;4932565;28;38014;-88
2023/07/06 13:11:27;;;;;;;2.35;0.90;;;23.70;1.00;;;;;;4900866;29;47198;-88
2023/07/06 13:14:04;;;;;;;2.28;1.15;;;23.80;1.00;;;;;;4897271;29;37370;-89